Latest Coastal Weather Observations for Laverton

IDV60701

Issued at 7:51 am EST Thursday 28 May 2015 (issued every 10 minutes, with the page automatically refreshed every 10 minutes)

About coastal observations | Map of coastal stations | Coastal observations for VIC | Marine services | Other Formats
Station Details ID: 087031 Name: LAVERTON RAAF Lat: -37.86 Lon: 144.76 Height: 20.1 m
Data from the previous 72 hours. | See also: Recent months at Laverton
Date/Time
EST
Temp

°C
Wind Pressure Rain
since 9am
mm
Weather Cloud Vis
km
Sea
Height
m
Swell
Dir
 
Speed
knots
Gust
knots
hPa Trend Height
m
Period
s
Dir
28/07:30am 12.5 N 11 15 1017.2 - 0.0 - Cloudy 10 - - - -
28/07:00am 12.4 NNW 9 14 1017.1 - 0.0 - Cloudy 10 - - - -
28/06:30am 12.1 NNW 10 15 1016.9 - 0.0 - Cloudy 10 - - - -
28/06:00am 12.4 N 9 13 1016.5 - 0.0 - Mostly cloudy 10 - - - -
28/05:30am 11.2 N 8 11 1016.8 - 0.0 - Partly cloudy 10 - - - -
28/05:00am 11.9 N 7 10 1016.9 - 0.0 - - 10 - - - -
28/04:30am 12.3 N 9 14 1016.8 - 0.0 - - 10 - - - -
28/04:00am 12.1 N 11 15 1016.6 - 0.0 - - 10 - - - -
28/03:30am 12.1 N 11 16 1017.0 - 0.0 - - 10 - - - -
28/03:00am 11.3 NNW 7 11 1017.3 - 0.0 - - 10 - - - -
28/02:30am 10.6 NNW 5 7 1017.7 - 0.0 - - 10 - - - -
28/02:00am 11.7 NNW 4 6 1017.9 - 0.0 - - 10 - - - -
28/01:30am 12.5 N 9 14 1017.8 - 0.0 - - 10 - - - -
28/01:00am 13.0 N 9 14 1017.8 - 0.0 - - 10 - - - -
28/12:30am 13.3 N 10 15 1018.0 - 0.0 - - 10 - - - -
28/12:00am 13.7 N 12 18 1018.3 - 0.0 - Mostly clear 10 - - - -
 
Date/Time
EST
Temp

°C
Wind Pressure Rain
since 9am
mm
Weather Cloud Vis
km
Sea
Height
m
Swell
Dir
 
Speed
knots
Gust
knots
hPa Trend Height
m
Period
s
Dir
27/11:30pm 14.0 N 11 17 1018.5 - 0.0 - Partly cloudy 10 - - - -
27/11:00pm 14.1 N 13 19 1018.3 - 0.0 - Partly cloudy 10 - - - -
27/10:30pm 14.4 N 15 21 1018.4 - 0.0 - Cloudy 10 - - - -
27/10:00pm 14.7 N 16 24 1018.3 - 0.0 - Partly cloudy 10 - - - -
27/09:45pm 14.8 N 16 26 1018.2 - 0.0 - Partly cloudy 10 - - - -
27/09:30pm 14.8 N 17 24 1018.2 - 0.0 - Partly cloudy 10 - - - -
27/09:07pm 14.6 N 16 27 1018.1 - 0.0 - - 10 - - - -
27/09:00pm 14.5 N 15 23 1018.2 - 0.0 - - 10 - - - -
27/08:30pm 14.5 N 15 24 1018.4 - 0.0 - - 10 - - - -
27/08:00pm 14.6 N 14 23 1018.6 - 0.0 - - 10 - - - -
27/07:30pm 14.4 N 12 18 1018.5 - 0.0 - - 10 - - - -
27/07:00pm 14.7 N 12 19 1018.4 - 0.0 - - 10 - - - -
27/06:30pm 14.8 N 11 15 1018.3 - 0.0 - - 10 - - - -
27/06:00pm 15.2 N 10 15 1018.2 - 0.0 - - 10 - - - -
27/05:30pm 15.6 NNW 10 13 1018.0 - 0.0 - - 10 - - - -
27/05:00pm 16.5 N 13 21 1017.6 - 0.0 - - 10 - - - -
27/04:30pm 17.3 NNW 13 19 1017.4 - 0.0 - - 10 - - - -
27/04:00pm 17.8 NNW 15 22 1017.4 - 0.0 - - 10 - - - -
27/03:30pm 18.1 NNW 15 23 1017.3 - 0.0 - - 10 - - - -
27/03:00pm 18.4 NNW 16 22 1017.2 - 0.0 - - 10 - - - -
27/02:30pm 18.9 NNW 15 20 1017.3 - 0.0 - - 10 - - - -
27/02:00pm 19.8 N 12 18 1017.6 - 0.0 - Partly cloudy 10 - - - -
27/01:30pm 18.8 N 12 19 1017.8 - 0.0 - Partly cloudy 10 - - - -
27/01:00pm 18.6 NNE 9 13 1018.2 - 0.0 - Partly cloudy 10 - - - -
27/12:30pm 17.0 N 9 11 1018.8 - 0.0 - Partly cloudy 10 - - - -
27/12:00pm 15.0 NNE 12 18 1019.2 - 0.0 - Cloudy 10 - - - -
27/11:30am 15.4 N 14 21 1019.8 - 0.0 - Partly cloudy 10 - - - -
27/11:00am 15.2 N 12 20 1020.0 - 0.0 - Partly cloudy 10 - - - -
27/10:30am 15.6 NNE 14 20 1020.6 - 0.0 - Partly cloudy 10 - - - -
27/10:00am 15.0 N 13 24 1020.7 - 0.0 - Partly cloudy 10 - - - -
27/09:30am 14.9 N 14 21 1020.6 - 0.0 - - 10 - - - -
27/09:00am 13.9 N 13 21 1020.6 - 0.0 - Partly cloudy 10 - - - -
27/08:30am 13.0 N 13 19 1020.7 - 0.0 - Partly cloudy 10 - - - -
27/08:00am 12.7 N 12 18 1020.5 - 0.0 - Partly cloudy 10 - - - -
27/07:30am 12.4 N 9 14 1020.6 - 0.0 - Partly cloudy 10 - - - -
27/07:00am 12.4 N 10 15 1020.5 - 0.0 - Partly cloudy 10 - - - -
27/06:30am 12.6 NNE 11 15 1020.2 - 0.0 - Partly cloudy 10 - - - -
27/06:00am 12.5 NNE 10 16 1020.3 - 0.0 - Cloudy 10 - - - -
27/05:30am 12.6 NNE 8 11 1020.5 - 0.0 - Cloudy 10 - - - -
27/05:00am 12.4 NNE 9 14 1020.6 - 0.0 - Cloudy 10 - - - -
27/04:30am 12.3 N 7 9 1020.7 - 0.0 - Partly cloudy 10 - - - -
27/04:00am 12.9 N 9 15 1020.8 - 0.0 - Partly cloudy 10 - - - -
27/03:30am 12.7 N 9 15 1020.8 - 0.0 - Cloudy 10 - - - -
27/03:00am 12.7 N 10 15 1021.1 - 0.0 - Mostly cloudy 10 - - - -
27/02:30am 12.4 NNE 9 14 1021.4 - 0.0 - Partly cloudy 10 - - - -
27/02:00am 12.1 NNE 10 13 1021.8 - 0.0 - Partly cloudy 10 - - - -
27/01:30am 12.1 NNE 8 11 1022.2 - 0.0 - Partly cloudy 10 - - - -
27/01:00am 12.2 NNE 9 13 1022.2 - 0.0 - - 10 - - - -
27/12:30am 11.0 NNE 5 7 1022.7 - 0.0 - - 10 - - - -
27/12:00am 11.2 NNE 8 11 1022.8 - 0.0 - Cloudy 10 - - - -
 
Date/Time
EST
Temp

°C
Wind Pressure Rain
since 9am
mm
Weather Cloud Vis
km
Sea
Height
m
Swell
Dir
 
Speed
knots
Gust
knots
hPa Trend Height
m
Period
s
Dir
26/11:30pm 10.9 NNE 9 11 1023.2 - 0.0 - - 10 - - - -
26/11:00pm 10.6 NNE 8 11 1023.4 - 0.0 - - 10 - - - -
26/10:30pm 10.5 NNE 8 10 1023.6 - 0.0 - - 10 - - - -
26/10:00pm 10.8 NNE 7 10 1023.8 - 0.0 - - 10 - - - -
26/09:30pm 11.1 NNE 8 11 1023.9 - 0.0 - - 10 - - - -
26/09:00pm 11.8 N 8 12 1024.0 - 0.0 - Mostly cloudy 10 - - - -
26/08:30pm 11.5 N 4 6 1024.2 - 0.0 - - 10 - - - -
26/08:00pm 12.2 NNE 8 10 1024.1 - 0.0 - - 10 - - - -
26/07:30pm 12.8 NNE 8 11 1024.4 - 0.0 - - 10 - - - -
26/07:00pm 13.2 N 6 8 1024.6 - 0.0 - - 10 - - - -
26/06:30pm 13.5 NNE 8 11 1024.7 - 0.0 - Partly cloudy 10 - - - -
26/06:00pm 13.7 NNE 8 11 1024.7 - 0.0 - Cloudy 10 - - - -
26/05:30pm 13.9 N 6 7 1024.7 - 0.0 - - 10 - - - -
26/05:00pm 14.3 NE 6 8 1024.5 - 0.0 - - 10 - - - -
26/04:30pm 14.6 NNE 6 9 1024.7 - 0.0 - Partly cloudy 10 - - - -
26/04:00pm 14.4 NNE 7 9 1025.0 - 0.0 - Cloudy 10 - - - -
26/03:30pm 14.6 NNE 6 9 1025.2 - 0.0 - Cloudy 10 - - - -
26/03:00pm 14.9 NNE 7 8 1025.3 - 0.0 - Mostly cloudy 10 - - - -
26/02:30pm 15.2 NNE 6 9 1025.4 - 0.0 - Cloudy 10 - - - -
26/02:00pm 15.4 NNE 7 9 1025.9 - 0.0 - Partly cloudy 10 - - - -
26/01:30pm 15.4 NE 2 4 1026.3 - 0.0 - Cloudy 10 - - - -
26/01:00pm 15.1 NE 4 6 1026.6 - 0.0 - Cloudy 10 - - - -
26/12:30pm 14.9 NNE 5 7 1026.9 - 0.0 - Partly cloudy 10 - - - -
26/12:00pm 15.6 NNE 5 9 1027.4 - 0.0 - Mostly cloudy 10 - - - -
26/11:30am 14.9 ENE 2 4 1027.9 - 0.0 - - 10 - - - -
26/11:00am 13.1 ENE 2 4 1028.8 - 0.0 - - 10 - - - -
26/10:30am 12.3 NNE 3 5 1029.4 - 0.0 - - 10 - - - -
26/10:00am 10.7 N 2 5 1029.5 - 0.0 - - 10 - - - -
26/09:30am 8.9 N 3 5 1029.6 - 0.0 - - 10 - - - -
26/09:00am 7.2 N 5 6 1029.7 - 0.0 - - 10 - - - -
26/08:30am 5.9 N 5 6 1029.6 - 0.0 - - 10 - - - -
26/08:00am 4.4 N 5 6 1029.8 - 0.0 - - 10 - - - -
26/07:30am 4.0 NNE 5 6 1029.5 - 0.0 - - 10 - - - -
26/07:00am 4.0 N 5 6 1029.4 - 0.0 - - 10 - - - -
26/06:30am 3.5 NNE 5 6 1029.3 - 0.0 - - 10 - - - -
26/06:00am 4.1 NNE 4 5 1029.0 - 0.0 - - 10 - - - -
26/05:30am 4.5 NNE 5 6 1029.1 - 0.0 - - 10 - - - -
26/05:00am 4.9 NNE 6 7 1029.2 - 0.0 - - 10 - - - -
26/04:30am 4.9 NNE 4 5 1029.1 - 0.0 - - 10 - - - -
26/04:00am 5.2 NNE 6 7 1029.1 - 0.0 - - 10 - - - -
26/03:30am 5.0 NNE 6 7 1029.1 - 0.0 - - 10 - - - -
26/03:00am 5.1 NNE 5 6 1029.2 - 0.0 - - 10 - - - -
26/02:30am 6.2 N 6 7 1029.5 - 0.0 - - 10 - - - -
26/02:00am 6.1 NNE 5 6 1029.5 - 0.0 - - 10 - - - -
26/01:30am 6.4 NNE 4 4 1029.5 - 0.0 - - 10 - - - -
26/01:00am 6.3 NNE 4 5 1029.6 - 0.0 - - 10 - - - -
26/12:30am 7.1 NNE 5 7 1029.8 - 0.0 - - 10 - - - -
26/12:00am 7.1 NNE 5 6 1029.7 - 0.0 - - 10 - - - -
 
Date/Time
EST
Temp

°C
Wind Pressure Rain
since 9am
mm
Weather Cloud Vis
km
Sea
Height
m
Swell
Dir
 
Speed
knots
Gust
knots
hPa Trend Height
m
Period
s
Dir
25/11:30pm 7.8 NNE 5 7 1029.8 - 0.0 - - 10 - - - -
25/11:00pm 8.2 NNE 6 8 1029.8 - 0.0 - - 10 - - - -
25/10:30pm 8.6 NNE 6 7 1030.0 - 0.0 - - 10 - - - -
25/10:00pm 8.4 NNE 6 6 1030.1 - 0.0 - - 10 - - - -
25/09:30pm 9.0 N 5 7 1030.3 - 0.0 - - 10 - - - -
25/09:00pm 9.4 NNE 5 5 1030.1 - 0.0 - - 10 - - - -
25/08:30pm 9.7 NE 4 5 1030.1 - 0.0 - - 10 - - - -
25/08:00pm 10.8 NNE 5 6 1030.1 - 0.0 - - 10 - - - -
25/07:30pm 11.4 NNE 5 6 1029.9 - 0.0 - - 10 - - - -
25/07:00pm 11.4 NE 4 5 1029.7 - 0.0 - - 10 - - - -
25/06:30pm 12.6 NNE 5 6 1029.3 - 0.0 - - 10 - - - -
25/06:00pm 12.7 ENE 6 7 1029.0 - 0.0 - - 10 - - - -
25/05:30pm 13.6 ENE 5 6 1028.6 - 0.0 - - 10 - - - -
25/05:00pm 14.9 NE 6 8 1028.5 - 0.0 - - 10 - - - -
25/04:30pm 16.1 NE 6 9 1028.5 - 0.0 - - 10 - - - -
25/04:00pm 16.7 NE 7 10 1028.6 - 0.0 - - 10 - - - -
25/03:30pm 16.1 NE 7 9 1028.6 - 0.0 - - 10 - - - -
25/03:00pm 16.8 NNE 5 8 1028.5 - 0.0 - Mostly clear 10 - - - -
25/02:30pm 16.5 NNE 6 9 1028.8 - 0.0 - - 10 - - - -
25/02:00pm 17.0 NE 6 9 1029.0 - 0.0 - - 10 - - - -
25/01:30pm 17.2 NNE 5 10 1029.3 - 0.0 - - 10 - - - -
25/01:00pm 16.6 NE 6 7 1029.7 - 0.0 - - 10 - - - -
25/12:30pm 16.1 NNE 5 9 1030.1 - 0.0 - - 10 - - - -
25/12:00pm 15.3 NNE 5 6 1030.5 - 0.0 - Mostly cloudy 10 - - - -
25/11:30am 13.6 N 5 6 1031.0 - 0.0 - - 10 - - - -
25/11:00am 13.1 N 6 9 1031.3 - 0.0 - - 10 - - - -
25/10:30am 12.0 N 6 7 1031.5 - 0.0 - - 10 - - - -
25/10:00am 11.5 N 4 6 1031.5 - 0.0 - - 10 - - - -
25/09:30am 10.7 NNE 5 7 1031.3 - 0.0 - - 10 - - - -
25/09:00am 9.8 N 3 5 1031.4 - 0.0 - Cloudy 10 - - - -
25/08:30am 9.0 N 5 6 1031.5 - 0.0 - - 10 - - - -
25/08:00am 8.4 N 4 6 1031.3 - 0.0 - - 10 - - - -

Other Formats:

Comma delimited format used in spreadsheet applications
http://www.bom.gov.au/fwo/IDV60701/IDV60701.94865.axf

JavaScript Object Notation format (JSON) in row-major order
http://www.bom.gov.au/fwo/IDV60701/IDV60701.94865.json